sensor_id;sensor_type;location;lat;lon;timestamp;temperature;humidity
4406;DHT22;2216;53.806;11.598;2024-01-15T00:02:05;2.30;90.80
4406;DHT22;2216;53.806;11.598;2024-01-15T00:04:38;2.30;90.80
4406;DHT22;2216;53.806;11.598;2024-01-15T00:07:05;2.30;91.20
4406;DHT22;2216;53.806;11.598;2024-01-15T00:09:32;2.30;90.80
4406;DHT22;2216;53.806;11.598;2024-01-15T00:11:59;2.30;90.90
4406;DHT22;2216;53.806;11.598;2024-01-15T00:14:25;2.30;90.80
4406;DHT22;2216;53.806;11.598;2024-01-15T00:16:51;2.30;91.00
4406;DHT22;2216;53.806;11.598;2024-01-15T00:19:17;2.30;90.80
4406;DHT22;2216;53.806;11.598;2024-01-15T00:21:44;2.30;90.90
4406;DHT22;2216;53.806;11.598;2024-01-15T00:24:10;2.30;90.90
4406;DHT22;2216;53.806;11.598;2024-01-15T00:26:36;2.30;90.90
4406;DHT22;2216;53.806;11.598;2024-01-15T00:29:02;2.30;90.80
4406;DHT22;2216;53.806;11.598;2024-01-15T00:31:29;2.30;90.90
4406;DHT22;2216;53.806;11.598;2024-01-15T00:33:56;2.30;90.80
4406;DHT22;2216;53.806;11.598;2024-01-15T00:36:23;2.30;90.80
4406;DHT22;2216;53.806;11.598;2024-01-15T00:38:48;2.20;91.10
4406;DHT22;2216;53.806;11.598;2024-01-15T00:41:14;2.20;90.80
4406;DHT22;2216;53.806;11.598;2024-01-15T00:43:40;2.30;90.80
4406;DHT22;2216;53.806;11.598;2024-01-15T00:46:06;2.20;90.80
4406;DHT22;2216;53.806;11.598;2024-01-15T00:48:32;2.20;90.80
4406;DHT22;2216;53.806;11.598;2024-01-15T00:50:58;2.20;90.80
4406;DHT22;2216;53.806;11.598;2024-01-15T00:53:25;2.20;90.80
4406;DHT22;2216;53.806;11.598;2024-01-15T00:55:51;2.20;90.80
4406;DHT22;2216;53.806;11.598;2024-01-15T00:58:16;2.30;90.90
4406;DHT22;2216;53.806;11.598;2024-01-15T01:00:42;2.20;90.90
4406;DHT22;2216;53.806;11.598;2024-01-15T01:03:08;2.20;90.90
4406;DHT22;2216;53.806;11.598;2024-01-15T01:05:34;2.20;90.90
4406;DHT22;2216;53.806;11.598;2024-01-15T01:08:00;2.20;90.90
4406;DHT22;2216;53.806;11.598;2024-01-15T01:10:26;2.20;90.90
4406;DHT22;2216;53.806;11.598;2024-01-15T01:12:52;2.20;91.00
4406;DHT22;2216;53.806;11.598;2024-01-15T01:15:18;2.30;91.00
4406;DHT22;2216;53.806;11.598;2024-01-15T01:17:44;2.30;91.00
4406;DHT22;2216;53.806;11.598;2024-01-15T01:20:10;2.30;91.30
4406;DHT22;2216;53.806;11.598;2024-01-15T01:22:36;2.30;91.00
4406;DHT22;2216;53.806;11.598;2024-01-15T01:25:02;2.50;91.10
4406;DHT22;2216;53.806;11.598;2024-01-15T01:27:28;2.30;91.10
4406;DHT22;2216;53.806;11.598;2024-01-15T01:29:54;2.40;91.10
4406;DHT22;2216;53.806;11.598;2024-01-15T01:32:20;2.40;91.00
4406;DHT22;2216;53.806;11.598;2024-01-15T01:34:46;2.40;91.10
4406;DHT22;2216;53.806;11.598;2024-01-15T01:37:12;2.30;91.00
4406;DHT22;2216;53.806;11.598;2024-01-15T01:39:39;2.40;91.00
4406;DHT22;2216;53.806;11.598;2024-01-15T01:42:05;2.40;91.00
4406;DHT22;2216;53.806;11.598;2024-01-15T01:44:30;2.50;91.00
4406;DHT22;2216;53.806;11.598;2024-01-15T01:46:58;2.40;91.00
4406;DHT22;2216;53.806;11.598;2024-01-15T01:49:24;2.40;90.90
4406;DHT22;2216;53.806;11.598;2024-01-15T01:51:52;2.40;90.90
4406;DHT22;2216;53.806;11.598;2024-01-15T01:54:19;2.30;90.80
4406;DHT22;2216;53.806;11.598;2024-01-15T01:56:45;2.40;90.80
4406;DHT22;2216;53.806;11.598;2024-01-15T01:59:13;2.40;90.80
4406;DHT22;2216;53.806;11.598;2024-01-15T02:01:39;2.30;90.80
4406;DHT22;2216;53.806;11.598;2024-01-15T02:04:06;2.30;90.80
4406;DHT22;2216;53.806;11.598;2024-01-15T02:06:31;2.30;90.90
4406;DHT22;2216;53.806;11.598;2024-01-15T02:08:57;2.30;90.90
4406;DHT22;2216;53.806;11.598;2024-01-15T02:11:23;2.30;90.80
4406;DHT22;2216;53.806;11.598;2024-01-15T02:13:49;2.30;90.90
4406;DHT22;2216;53.806;11.598;2024-01-15T02:16:15;2.30;90.90
4406;DHT22;2216;53.806;11.598;2024-01-15T02:18:42;2.30;90.90
4406;DHT22;2216;53.806;11.598;2024-01-15T02:21:08;2.30;91.00
4406;DHT22;2216;53.806;11.598;2024-01-15T02:23:35;2.30;90.90
4406;DHT22;2216;53.806;11.598;2024-01-15T02:26:01;2.30;90.90
4406;DHT22;2216;53.806;11.598;2024-01-15T02:28:27;2.30;90.90
4406;DHT22;2216;53.806;11.598;2024-01-15T02:30:52;2.30;91.00
4406;DHT22;2216;53.806;11.598;2024-01-15T02:33:18;2.30;91.00
4406;DHT22;2216;53.806;11.598;2024-01-15T02:35:44;2.30;91.00
4406;DHT22;2216;53.806;11.598;2024-01-15T02:38:12;2.30;91.00
4406;DHT22;2216;53.806;11.598;2024-01-15T02:40:38;2.30;91.00
4406;DHT22;2216;53.806;11.598;2024-01-15T02:43:04;2.30;91.00
4406;DHT22;2216;53.806;11.598;2024-01-15T02:45:30;2.30;91.00
4406;DHT22;2216;53.806;11.598;2024-01-15T02:47:56;2.30;91.00
4406;DHT22;2216;53.806;11.598;2024-01-15T02:50:21;2.30;91.00
4406;DHT22;2216;53.806;11.598;2024-01-15T02:52:47;2.30;91.00
4406;DHT22;2216;53.806;11.598;2024-01-15T02:55:13;2.30;91.00
4406;DHT22;2216;53.806;11.598;2024-01-15T02:57:39;2.30;91.00
4406;DHT22;2216;53.806;11.598;2024-01-15T03:00:05;2.30;91.00
4406;DHT22;2216;53.806;11.598;2024-01-15T03:02:32;2.30;91.00
4406;DHT22;2216;53.806;11.598;2024-01-15T03:05:01;2.30;91.00
4406;DHT22;2216;53.806;11.598;2024-01-15T03:07:27;2.30;91.00
4406;DHT22;2216;53.806;11.598;2024-01-15T03:09:53;2.30;91.00
4406;DHT22;2216;53.806;11.598;2024-01-15T03:12:19;2.30;91.00
4406;DHT22;2216;53.806;11.598;2024-01-15T03:14:45;2.30;91.00
4406;DHT22;2216;53.806;11.598;2024-01-15T03:17:10;2.40;91.00
4406;DHT22;2216;53.806;11.598;2024-01-15T03:19:37;2.40;91.00
4406;DHT22;2216;53.806;11.598;2024-01-15T03:22:03;2.40;91.00
4406;DHT22;2216;53.806;11.598;2024-01-15T03:24:29;2.30;91.00
4406;DHT22;2216;53.806;11.598;2024-01-15T03:26:56;2.40;91.00
4406;DHT22;2216;53.806;11.598;2024-01-15T03:29:22;2.30;91.00
4406;DHT22;2216;53.806;11.598;2024-01-15T03:31:48;2.40;91.00
4406;DHT22;2216;53.806;11.598;2024-01-15T03:34:14;2.40;91.00
4406;DHT22;2216;53.806;11.598;2024-01-15T03:36:40;2.40;91.00
4406;DHT22;2216;53.806;11.598;2024-01-15T03:39:06;2.40;91.00
4406;DHT22;2216;53.806;11.598;2024-01-15T03:41:33;2.40;91.00
4406;DHT22;2216;53.806;11.598;2024-01-15T03:43:58;2.40;91.00
4406;DHT22;2216;53.806;11.598;2024-01-15T03:46:24;2.40;91.00
4406;DHT22;2216;53.806;11.598;2024-01-15T03:48:50;2.40;91.10
4406;DHT22;2216;53.806;11.598;2024-01-15T03:51:19;2.40;91.10
4406;DHT22;2216;53.806;11.598;2024-01-15T03:53:45;2.40;91.00
4406;DHT22;2216;53.806;11.598;2024-01-15T03:56:11;2.40;91.00
4406;DHT22;2216;53.806;11.598;2024-01-15T03:58:36;2.50;91.10
4406;DHT22;2216;53.806;11.598;2024-01-15T04:01:02;2.50;91.10
4406;DHT22;2216;53.806;11.598;2024-01-15T04:03:28;2.50;91.00
4406;DHT22;2216;53.806;11.598;2024-01-15T04:05:54;2.50;91.00
4406;DHT22;2216;53.806;11.598;2024-01-15T04:08:20;2.50;91.00
4406;DHT22;2216;53.806;11.598;2024-01-15T04:10:46;2.50;91.00
4406;DHT22;2216;53.806;11.598;2024-01-15T04:13:11;2.50;91.00
4406;DHT22;2216;53.806;11.598;2024-01-15T04:15:37;2.60;91.00
4406;DHT22;2216;53.806;11.598;2024-01-15T04:18:03;2.50;91.00
4406;DHT22;2216;53.806;11.598;2024-01-15T04:20:29;2.50;91.00
4406;DHT22;2216;53.806;11.598;2024-01-15T04:22:55;2.50;91.00
4406;DHT22;2216;53.806;11.598;2024-01-15T04:25:20;2.50;91.00
4406;DHT22;2216;53.806;11.598;2024-01-15T04:27:46;2.50;91.00
4406;DHT22;2216;53.806;11.598;2024-01-15T04:30:12;2.50;91.00
4406;DHT22;2216;53.806;11.598;2024-01-15T04:32:38;2.50;91.00
4406;DHT22;2216;53.806;11.598;2024-01-15T04:35:04;2.50;91.00
4406;DHT22;2216;53.806;11.598;2024-01-15T04:37:30;2.50;91.00
4406;DHT22;2216;53.806;11.598;2024-01-15T04:39:55;2.50;91.00
4406;DHT22;2216;53.806;11.598;2024-01-15T04:42:23;2.40;91.00
4406;DHT22;2216;53.806;11.598;2024-01-15T04:44:49;2.50;91.00
4406;DHT22;2216;53.806;11.598;2024-01-15T04:47:15;2.60;91.10
4406;DHT22;2216;53.806;11.598;2024-01-15T04:49:40;2.60;91.00
4406;DHT22;2216;53.806;11.598;2024-01-15T04:52:06;2.60;91.10
4406;DHT22;2216;53.806;11.598;2024-01-15T04:54:32;2.50;91.00
4406;DHT22;2216;53.806;11.598;2024-01-15T04:56:58;2.60;91.00
4406;DHT22;2216;53.806;11.598;2024-01-15T04:59:23;2.60;91.00
4406;DHT22;2216;53.806;11.598;2024-01-15T05:01:49;2.60;91.00
4406;DHT22;2216;53.806;11.598;2024-01-15T05:04:15;2.60;91.00
4406;DHT22;2216;53.806;11.598;2024-01-15T05:06:41;2.60;91.00
4406;DHT22;2216;53.806;11.598;2024-01-15T05:09:07;2.60;91.00
4406;DHT22;2216;53.806;11.598;2024-01-15T05:11:32;2.60;91.00
4406;DHT22;2216;53.806;11.598;2024-01-15T05:13:58;2.60;91.00
4406;DHT22;2216;53.806;11.598;2024-01-15T05:16:24;2.60;91.00
4406;DHT22;2216;53.806;11.598;2024-01-15T05:18:50;2.60;91.00
4406;DHT22;2216;53.806;11.598;2024-01-15T05:21:16;2.60;91.00
4406;DHT22;2216;53.806;11.598;2024-01-15T05:23:41;2.60;91.00
4406;DHT22;2216;53.806;11.598;2024-01-15T05:26:07;2.60;90.90
4406;DHT22;2216;53.806;11.598;2024-01-15T05:28:34;2.60;91.00
4406;DHT22;2216;53.806;11.598;2024-01-15T05:31:01;2.60;90.90
4406;DHT22;2216;53.806;11.598;2024-01-15T05:33:27;2.60;90.90
4406;DHT22;2216;53.806;11.598;2024-01-15T05:35:52;2.60;90.90
4406;DHT22;2216;53.806;11.598;2024-01-15T05:38:19;2.60;90.90
4406;DHT22;2216;53.806;11.598;2024-01-15T05:40:45;2.70;90.90
4406;DHT22;2216;53.806;11.598;2024-01-15T05:43:10;2.60;90.80
4406;DHT22;2216;53.806;11.598;2024-01-15T05:45:38;2.60;90.80
4406;DHT22;2216;53.806;11.598;2024-01-15T05:48:05;2.60;90.80
4406;DHT22;2216;53.806;11.598;2024-01-15T05:50:30;2.60;90.80
4406;DHT22;2216;53.806;11.598;2024-01-15T05:52:56;2.60;90.80
4406;DHT22;2216;53.806;11.598;2024-01-15T05:55:22;2.60;90.80
4406;DHT22;2216;53.806;11.598;2024-01-15T05:57:48;2.60;90.80
4406;DHT22;2216;53.806;11.598;2024-01-15T06:00:13;2.60;90.80
4406;DHT22;2216;53.806;11.598;2024-01-15T06:02:39;2.60;90.80
4406;DHT22;2216;53.806;11.598;2024-01-15T06:05:06;2.60;90.70
4406;DHT22;2216;53.806;11.598;2024-01-15T06:07:34;2.60;90.70
4406;DHT22;2216;53.806;11.598;2024-01-15T06:10:00;2.70;90.80
4406;DHT22;2216;53.806;11.598;2024-01-15T06:12:26;2.70;90.80
4406;DHT22;2216;53.806;11.598;2024-01-15T06:14:53;2.70;90.80
4406;DHT22;2216;53.806;11.598;2024-01-15T06:17:19;2.70;90.80
4406;DHT22;2216;53.806;11.598;2024-01-15T06:19:44;2.70;90.80
4406;DHT22;2216;53.806;11.598;2024-01-15T06:22:10;2.70;90.80
4406;DHT22;2216;53.806;11.598;2024-01-15T06:24:36;2.80;90.90
4406;DHT22;2216;53.806;11.598;2024-01-15T06:27:01;2.80;90.80
4406;DHT22;2216;53.806;11.598;2024-01-15T06:29:28;2.80;90.80
4406;DHT22;2216;53.806;11.598;2024-01-15T06:31:54;2.80;90.80
4406;DHT22;2216;53.806;11.598;2024-01-15T06:34:19;2.80;90.70
4406;DHT22;2216;53.806;11.598;2024-01-15T06:36:45;2.80;90.70
4406;DHT22;2216;53.806;11.598;2024-01-15T06:39:11;2.80;90.70
4406;DHT22;2216;53.806;11.598;2024-01-15T06:41:37;2.80;90.70
4406;DHT22;2216;53.806;11.598;2024-01-15T06:44:09;2.80;90.60
4406;DHT22;2216;53.806;11.598;2024-01-15T06:46:36;2.80;90.60
4406;DHT22;2216;53.806;11.598;2024-01-15T06:49:02;2.80;90.60
4406;DHT22;2216;53.806;11.598;2024-01-15T06:51:29;2.70;90.60
4406;DHT22;2216;53.806;11.598;2024-01-15T06:53:55;2.70;90.60
4406;DHT22;2216;53.806;11.598;2024-01-15T06:56:20;2.70;90.60
4406;DHT22;2216;53.806;11.598;2024-01-15T06:58:46;2.70;90.60
4406;DHT22;2216;53.806;11.598;2024-01-15T07:01:12;2.80;90.60
4406;DHT22;2216;53.806;11.598;2024-01-15T07:03:38;2.70;90.60
4406;DHT22;2216;53.806;11.598;2024-01-15T07:06:04;2.70;90.60
4406;DHT22;2216;53.806;11.598;2024-01-15T07:08:30;2.70;90.60
4406;DHT22;2216;53.806;11.598;2024-01-15T07:10:56;2.70;90.70
4406;DHT22;2216;53.806;11.598;2024-01-15T07:13:21;2.70;90.60
4406;DHT22;2216;53.806;11.598;2024-01-15T07:15:47;2.70;90.70
4406;DHT22;2216;53.806;11.598;2024-01-15T07:18:13;2.70;90.60
4406;DHT22;2216;53.806;11.598;2024-01-15T07:20:39;2.70;90.60
4406;DHT22;2216;53.806;11.598;2024-01-15T07:23:04;2.80;90.60
4406;DHT22;2216;53.806;11.598;2024-01-15T07:25:30;2.70;90.60
4406;DHT22;2216;53.806;11.598;2024-01-15T07:27:56;2.80;90.70
4406;DHT22;2216;53.806;11.598;2024-01-15T07:30:21;2.80;90.70
4406;DHT22;2216;53.806;11.598;2024-01-15T07:32:47;2.80;90.60
4406;DHT22;2216;53.806;11.598;2024-01-15T07:35:14;2.70;90.60
4406;DHT22;2216;53.806;11.598;2024-01-15T07:37:41;2.80;90.60
4406;DHT22;2216;53.806;11.598;2024-01-15T07:40:07;2.70;90.60
4406;DHT22;2216;53.806;11.598;2024-01-15T07:42:34;2.80;90.60
4406;DHT22;2216;53.806;11.598;2024-01-15T07:45:00;2.70;90.60
4406;DHT22;2216;53.806;11.598;2024-01-15T07:47:26;2.80;90.60
4406;DHT22;2216;53.806;11.598;2024-01-15T07:49:53;2.70;90.50
4406;DHT22;2216;53.806;11.598;2024-01-15T07:52:19;2.70;90.50
4406;DHT22;2216;53.806;11.598;2024-01-15T07:54:45;2.70;90.50
4406;DHT22;2216;53.806;11.598;2024-01-15T07:57:11;2.60;90.50
4406;DHT22;2216;53.806;11.598;2024-01-15T07:59:37;2.70;90.60
4406;DHT22;2216;53.806;11.598;2024-01-15T08:02:03;2.70;90.60
4406;DHT22;2216;53.806;11.598;2024-01-15T08:04:28;2.70;90.60
4406;DHT22;2216;53.806;11.598;2024-01-15T08:06:55;2.70;90.60
4406;DHT22;2216;53.806;11.598;2024-01-15T08:09:22;2.70;90.60
4406;DHT22;2216;53.806;11.598;2024-01-15T08:11:48;2.70;90.60
4406;DHT22;2216;53.806;11.598;2024-01-15T08:14:15;2.70;90.70
4406;DHT22;2216;53.806;11.598;2024-01-15T08:16:40;2.70;90.60
4406;DHT22;2216;53.806;11.598;2024-01-15T08:19:06;2.70;90.70
4406;DHT22;2216;53.806;11.598;2024-01-15T08:21:32;2.80;90.70
4406;DHT22;2216;53.806;11.598;2024-01-15T08:24:02;2.80;90.70
4406;DHT22;2216;53.806;11.598;2024-01-15T08:26:29;2.80;90.70
4406;DHT22;2216;53.806;11.598;2024-01-15T08:28:54;2.80;90.70
4406;DHT22;2216;53.806;11.598;2024-01-15T08:31:20;2.80;90.70
4406;DHT22;2216;53.806;11.598;2024-01-15T08:33:46;2.80;90.70
4406;DHT22;2216;53.806;11.598;2024-01-15T08:36:12;2.80;90.70
4406;DHT22;2216;53.806;11.598;2024-01-15T08:38:38;2.80;90.70
4406;DHT22;2216;53.806;11.598;2024-01-15T08:41:04;2.80;90.70
4406;DHT22;2216;53.806;11.598;2024-01-15T08:43:30;2.90;90.70
4406;DHT22;2216;53.806;11.598;2024-01-15T08:45:59;2.90;90.70
4406;DHT22;2216;53.806;11.598;2024-01-15T08:48:26;2.90;90.70
4406;DHT22;2216;53.806;11.598;2024-01-15T08:50:55;2.90;90.70
4406;DHT22;2216;53.806;11.598;2024-01-15T08:53:21;2.90;90.70
4406;DHT22;2216;53.806;11.598;2024-01-15T08:55:47;2.90;90.70
4406;DHT22;2216;53.806;11.598;2024-01-15T08:58:14;3.00;90.70
4406;DHT22;2216;53.806;11.598;2024-01-15T09:00:39;3.00;90.70
4406;DHT22;2216;53.806;11.598;2024-01-15T09:03:05;3.00;90.60
4406;DHT22;2216;53.806;11.598;2024-01-15T09:05:31;3.00;90.60
4406;DHT22;2216;53.806;11.598;2024-01-15T09:07:57;3.00;90.70
4406;DHT22;2216;53.806;11.598;2024-01-15T09:10:23;3.00;90.70
4406;DHT22;2216;53.806;11.598;2024-01-15T09:12:49;3.00;90.70
4406;DHT22;2216;53.806;11.598;2024-01-15T09:15:15;3.00;90.60
4406;DHT22;2216;53.806;11.598;2024-01-15T09:17:41;3.10;90.70
4406;DHT22;2216;53.806;11.598;2024-01-15T09:20:08;3.10;90.70
4406;DHT22;2216;53.806;11.598;2024-01-15T09:22:37;3.10;90.70
4406;DHT22;2216;53.806;11.598;2024-01-15T09:25:04;3.10;90.60
4406;DHT22;2216;53.806;11.598;2024-01-15T09:27:30;3.10;90.60
4406;DHT22;2216;53.806;11.598;2024-01-15T09:29:56;3.10;90.60
4406;DHT22;2216;53.806;11.598;2024-01-15T09:32:22;3.10;90.60
4406;DHT22;2216;53.806;11.598;2024-01-15T09:34:48;3.10;90.50
4406;DHT22;2216;53.806;11.598;2024-01-15T09:37:14;3.10;90.40
4406;DHT22;2216;53.806;11.598;2024-01-15T09:39:41;3.20;90.60
4406;DHT22;2216;53.806;11.598;2024-01-15T09:42:07;3.20;90.60
4406;DHT22;2216;53.806;11.598;2024-01-15T09:44:33;3.20;90.60
4406;DHT22;2216;53.806;11.598;2024-01-15T09:46:59;3.20;90.60
4406;DHT22;2216;53.806;11.598;2024-01-15T09:49:25;3.20;90.60
4406;DHT22;2216;53.806;11.598;2024-01-15T09:51:51;3.20;90.50
4406;DHT22;2216;53.806;11.598;2024-01-15T09:54:18;3.20;90.50
4406;DHT22;2216;53.806;11.598;2024-01-15T09:56:47;3.20;90.50
4406;DHT22;2216;53.806;11.598;2024-01-15T09:59:16;3.20;90.70
4406;DHT22;2216;53.806;11.598;2024-01-15T10:01:47;3.20;90.40
4406;DHT22;2216;53.806;11.598;2024-01-15T10:04:14;3.20;90.30
4406;DHT22;2216;53.806;11.598;2024-01-15T10:06:45;3.20;90.30
4406;DHT22;2216;53.806;11.598;2024-01-15T10:09:14;3.10;90.40
4406;DHT22;2216;53.806;11.598;2024-01-15T10:11:42;3.10;90.30
4406;DHT22;2216;53.806;11.598;2024-01-15T10:14:09;3.10;90.20
4406;DHT22;2216;53.806;11.598;2024-01-15T10:16:42;3.10;90.30
4406;DHT22;2216;53.806;11.598;2024-01-15T10:19:08;3.00;90.30
4406;DHT22;2216;53.806;11.598;2024-01-15T10:21:35;3.00;90.30
4406;DHT22;2216;53.806;11.598;2024-01-15T10:24:02;3.00;90.30
4406;DHT22;2216;53.806;11.598;2024-01-15T10:26:29;3.00;90.30
4406;DHT22;2216;53.806;11.598;2024-01-15T10:28:55;3.00;90.30
4406;DHT22;2216;53.806;11.598;2024-01-15T10:31:21;3.10;90.40
4406;DHT22;2216;53.806;11.598;2024-01-15T10:33:50;3.00;90.20
4406;DHT22;2216;53.806;11.598;2024-01-15T10:36:17;3.00;90.30
4406;DHT22;2216;53.806;11.598;2024-01-15T10:38:44;3.10;90.40
4406;DHT22;2216;53.806;11.598;2024-01-15T10:41:10;3.00;90.40
4406;DHT22;2216;53.806;11.598;2024-01-15T10:43:36;3.10;90.50
4406;DHT22;2216;53.806;11.598;2024-01-15T10:46:02;3.10;90.40
4406;DHT22;2216;53.806;11.598;2024-01-15T10:48:28;3.00;90.40
4406;DHT22;2216;53.806;11.598;2024-01-15T10:50:57;3.00;90.30
4406;DHT22;2216;53.806;11.598;2024-01-15T10:53:24;3.00;90.20
4406;DHT22;2216;53.806;11.598;2024-01-15T10:55:51;3.00;89.90
4406;DHT22;2216;53.806;11.598;2024-01-15T10:58:17;2.90;89.70
4406;DHT22;2216;53.806;11.598;2024-01-15T11:00:44;2.90;89.30
4406;DHT22;2216;53.806;11.598;2024-01-15T11:03:10;2.80;89.60
4406;DHT22;2216;53.806;11.598;2024-01-15T11:05:41;2.80;90.00
4406;DHT22;2216;53.806;11.598;2024-01-15T11:08:08;2.80;90.00
4406;DHT22;2216;53.806;11.598;2024-01-15T11:10:48;2.80;90.10
4406;DHT22;2216;53.806;11.598;2024-01-15T11:13:21;2.80;90.10
4406;DHT22;2216;53.806;11.598;2024-01-15T11:18:33;2.80;90.20
4406;DHT22;2216;53.806;11.598;2024-01-15T11:23:53;2.90;90.40
4406;DHT22;2216;53.806;11.598;2024-01-15T11:26:45;2.90;90.40
4406;DHT22;2216;53.806;11.598;2024-01-15T11:32:01;2.90;90.40
4406;DHT22;2216;53.806;11.598;2024-01-15T11:35:01;2.90;90.30
4406;DHT22;2216;53.806;11.598;2024-01-15T11:37:29;3.00;90.30
4406;DHT22;2216;53.806;11.598;2024-01-15T11:40:18;2.90;90.30
4406;DHT22;2216;53.806;11.598;2024-01-15T11:42:45;2.90;90.20
4406;DHT22;2216;53.806;11.598;2024-01-15T11:45:11;2.90;90.30
4406;DHT22;2216;53.806;11.598;2024-01-15T11:50:34;2.90;90.30
4406;DHT22;2216;53.806;11.598;2024-01-15T11:53:02;3.00;90.40
4406;DHT22;2216;53.806;11.598;2024-01-15T11:55:38;2.90;90.40
4406;DHT22;2216;53.806;11.598;2024-01-15T11:58:11;2.90;90.30
4406;DHT22;2216;53.806;11.598;2024-01-15T12:00:40;2.90;90.10
4406;DHT22;2216;53.806;11.598;2024-01-15T12:03:08;2.90;90.00
4406;DHT22;2216;53.806;11.598;2024-01-15T12:05:37;2.90;90.00
4406;DHT22;2216;53.806;11.598;2024-01-15T12:08:04;2.90;90.10
4406;DHT22;2216;53.806;11.598;2024-01-15T12:10:36;2.90;90.10
4406;DHT22;2216;53.806;11.598;2024-01-15T12:13:09;2.90;90.10
4406;DHT22;2216;53.806;11.598;2024-01-15T12:15:36;2.90;89.70
4406;DHT22;2216;53.806;11.598;2024-01-15T12:18:02;2.90;90.10
4406;DHT22;2216;53.806;11.598;2024-01-15T12:20:30;2.80;90.00
4406;DHT22;2216;53.806;11.598;2024-01-15T12:22:56;2.80;89.90
4406;DHT22;2216;53.806;11.598;2024-01-15T12:25:23;2.80;90.00
4406;DHT22;2216;53.806;11.598;2024-01-15T12:27:50;2.80;90.00
4406;DHT22;2216;53.806;11.598;2024-01-15T12:30:16;2.80;89.60
4406;DHT22;2216;53.806;11.598;2024-01-15T12:32:42;2.70;89.20
4406;DHT22;2216;53.806;11.598;2024-01-15T12:35:10;2.70;89.70
4406;DHT22;2216;53.806;11.598;2024-01-15T12:37:38;2.70;89.80
4406;DHT22;2216;53.806;11.598;2024-01-15T12:40:06;2.70;90.30
4406;DHT22;2216;53.806;11.598;2024-01-15T12:42:41;2.70;90.00
4406;DHT22;2216;53.806;11.598;2024-01-15T12:45:09;2.70;90.00
4406;DHT22;2216;53.806;11.598;2024-01-15T12:47:36;2.70;89.90
4406;DHT22;2216;53.806;11.598;2024-01-15T12:50:02;2.70;90.00
4406;DHT22;2216;53.806;11.598;2024-01-15T12:52:32;2.70;90.00
4406;DHT22;2216;53.806;11.598;2024-01-15T12:54:58;2.70;90.20
4406;DHT22;2216;53.806;11.598;2024-01-15T12:57:24;2.80;90.20
4406;DHT22;2216;53.806;11.598;2024-01-15T12:59:49;2.80;90.10
4406;DHT22;2216;53.806;11.598;2024-01-15T13:02:15;2.80;90.10
4406;DHT22;2216;53.806;11.598;2024-01-15T13:04:42;2.80;90.10
4406;DHT22;2216;53.806;11.598;2024-01-15T13:07:08;2.80;90.00
4406;DHT22;2216;53.806;11.598;2024-01-15T13:09:35;2.80;89.70
4406;DHT22;2216;53.806;11.598;2024-01-15T13:12:04;2.80;89.90
4406;DHT22;2216;53.806;11.598;2024-01-15T13:14:31;2.80;90.00
4406;DHT22;2216;53.806;11.598;2024-01-15T13:16:58;2.80;90.00
4406;DHT22;2216;53.806;11.598;2024-01-15T13:19:24;2.80;90.00
4406;DHT22;2216;53.806;11.598;2024-01-15T13:21:49;2.90;90.00
4406;DHT22;2216;53.806;11.598;2024-01-15T13:24:17;2.70;89.90
4406;DHT22;2216;53.806;11.598;2024-01-15T13:26:43;2.70;89.70
4406;DHT22;2216;53.806;11.598;2024-01-15T13:29:09;2.70;89.90
4406;DHT22;2216;53.806;11.598;2024-01-15T13:31:34;2.70;90.00
4406;DHT22;2216;53.806;11.598;2024-01-15T13:34:00;2.70;89.90
4406;DHT22;2216;53.806;11.598;2024-01-15T13:36:26;2.70;89.70
4406;DHT22;2216;53.806;11.598;2024-01-15T13:38:53;2.60;89.20
4406;DHT22;2216;53.806;11.598;2024-01-15T13:41:20;2.60;89.30
4406;DHT22;2216;53.806;11.598;2024-01-15T13:43:53;2.60;89.10
4406;DHT22;2216;53.806;11.598;2024-01-15T13:46:23;2.50;89.30
4406;DHT22;2216;53.806;11.598;2024-01-15T13:48:49;2.50;89.40
4406;DHT22;2216;53.806;11.598;2024-01-15T13:51:15;2.50;89.40
4406;DHT22;2216;53.806;11.598;2024-01-15T13:53:40;2.50;88.90
4406;DHT22;2216;53.806;11.598;2024-01-15T13:56:07;2.40;88.90
4406;DHT22;2216;53.806;11.598;2024-01-15T13:58:33;2.40;88.70
4406;DHT22;2216;53.806;11.598;2024-01-15T14:01:00;2.30;88.60
4406;DHT22;2216;53.806;11.598;2024-01-15T14:03:26;2.30;88.80
4406;DHT22;2216;53.806;11.598;2024-01-15T14:05:52;2.30;88.60
4406;DHT22;2216;53.806;11.598;2024-01-15T14:08:18;2.20;88.70
4406;DHT22;2216;53.806;11.598;2024-01-15T14:10:44;2.20;88.80
4406;DHT22;2216;53.806;11.598;2024-01-15T14:13:10;2.20;89.00
4406;DHT22;2216;53.806;11.598;2024-01-15T14:15:36;2.20;88.90
4406;DHT22;2216;53.806;11.598;2024-01-15T14:18:02;2.10;89.20
4406;DHT22;2216;53.806;11.598;2024-01-15T14:20:28;2.10;89.40
4406;DHT22;2216;53.806;11.598;2024-01-15T14:22:54;2.10;89.40
4406;DHT22;2216;53.806;11.598;2024-01-15T14:25:20;2.20;89.40
4406;DHT22;2216;53.806;11.598;2024-01-15T14:27:47;2.10;89.50
4406;DHT22;2216;53.806;11.598;2024-01-15T14:30:13;2.00;89.20
4406;DHT22;2216;53.806;11.598;2024-01-15T14:32:40;2.00;89.30
4406;DHT22;2216;53.806;11.598;2024-01-15T14:35:06;2.00;89.30
4406;DHT22;2216;53.806;11.598;2024-01-15T14:37:39;2.00;89.30
4406;DHT22;2216;53.806;11.598;2024-01-15T14:40:07;2.00;89.00
4406;DHT22;2216;53.806;11.598;2024-01-15T14:42:34;2.00;89.30
4406;DHT22;2216;53.806;11.598;2024-01-15T14:45:00;1.90;89.20
4406;DHT22;2216;53.806;11.598;2024-01-15T14:47:28;1.90;89.10
4406;DHT22;2216;53.806;11.598;2024-01-15T14:49:54;1.90;89.20
4406;DHT22;2216;53.806;11.598;2024-01-15T14:52:22;2.00;89.30
4406;DHT22;2216;53.806;11.598;2024-01-15T14:54:49;1.80;89.00
4406;DHT22;2216;53.806;11.598;2024-01-15T14:57:15;1.80;88.80
4406;DHT22;2216;53.806;11.598;2024-01-15T14:59:41;1.70;89.60
4406;DHT22;2216;53.806;11.598;2024-01-15T15:02:07;1.70;88.30
4406;DHT22;2216;53.806;11.598;2024-01-15T15:04:33;1.70;88.60
4406;DHT22;2216;53.806;11.598;2024-01-15T15:06:59;1.50;88.60
4406;DHT22;2216;53.806;11.598;2024-01-15T15:09:24;1.70;89.00
4406;DHT22;2216;53.806;11.598;2024-01-15T15:11:50;1.70;89.20
4406;DHT22;2216;53.806;11.598;2024-01-15T15:14:17;1.60;89.10
4406;DHT22;2216;53.806;11.598;2024-01-15T15:16:43;1.60;89.10
4406;DHT22;2216;53.806;11.598;2024-01-15T15:19:12;1.60;89.20
4406;DHT22;2216;53.806;11.598;2024-01-15T15:21:37;1.60;89.30
4406;DHT22;2216;53.806;11.598;2024-01-15T15:24:03;1.60;89.30
4406;DHT22;2216;53.806;11.598;2024-01-15T15:26:29;1.50;89.30
4406;DHT22;2216;53.806;11.598;2024-01-15T15:28:55;1.50;89.10
4406;DHT22;2216;53.806;11.598;2024-01-15T15:31:20;1.50;89.00
4406;DHT22;2216;53.806;11.598;2024-01-15T15:33:46;1.50;88.90
4406;DHT22;2216;53.806;11.598;2024-01-15T15:36:12;1.50;88.40
4406;DHT22;2216;53.806;11.598;2024-01-15T15:38:38;1.40;88.10
4406;DHT22;2216;53.806;11.598;2024-01-15T15:41:03;1.40;88.20
4406;DHT22;2216;53.806;11.598;2024-01-15T15:43:29;1.40;88.00
4406;DHT22;2216;53.806;11.598;2024-01-15T15:45:56;1.40;87.40
4406;DHT22;2216;53.806;11.598;2024-01-15T15:48:23;1.30;87.70
4406;DHT22;2216;53.806;11.598;2024-01-15T15:50:50;1.30;87.60
4406;DHT22;2216;53.806;11.598;2024-01-15T15:53:18;1.30;87.70
4406;DHT22;2216;53.806;11.598;2024-01-15T15:55:45;1.30;87.90
4406;DHT22;2216;53.806;11.598;2024-01-15T15:58:11;1.30;88.10
4406;DHT22;2216;53.806;11.598;2024-01-15T16:00:36;1.30;88.30
4406;DHT22;2216;53.806;11.598;2024-01-15T16:03:03;1.20;88.20
4406;DHT22;2216;53.806;11.598;2024-01-15T16:05:29;1.20;88.20
4406;DHT22;2216;53.806;11.598;2024-01-15T16:07:55;1.20;88.20
4406;DHT22;2216;53.806;11.598;2024-01-15T16:10:21;1.30;88.20